createdAt,value
2018-11-10T00:01:02.957Z,82.95
2018-11-10T00:03:15.135Z,82.42
2018-11-10T00:05:27.383Z,83.62
2018-11-10T00:07:39.647Z,83.49
2018-11-10T00:09:51.869Z,83.61
2018-11-10T00:12:04.221Z,84.18
2018-11-10T00:14:16.424Z,82.05
2018-11-10T00:16:28.670Z,81.84
2018-11-10T00:18:40.833Z,81.97
2018-11-10T00:20:53.065Z,82.06
2018-11-10T00:23:05.368Z,81.66
2018-11-10T00:25:17.588Z,81.15
2018-11-10T00:27:29.759Z,82.20
2018-11-10T00:29:41.964Z,81.87
2018-11-10T00:31:54.149Z,82.46
2018-11-10T00:34:06.373Z,81.92
2018-11-10T00:36:18.582Z,82.44
2018-11-10T00:38:30.875Z,82.87
2018-11-10T00:40:43.207Z,82.85
2018-11-10T00:42:55.457Z,83.31
2018-11-10T00:45:08.114Z,81.85
2018-11-10T00:47:20.383Z,80.87
2018-11-10T00:49:32.786Z,81.45
2018-11-10T00:51:45.042Z,81.33
2018-11-10T00:53:57.277Z,80.91
2018-11-10T00:56:09.528Z,81.89
2018-11-10T00:58:21.795Z,80.92
2018-11-10T01:00:34.038Z,81.37
2018-11-10T01:02:46.251Z,82.65
2018-11-10T01:04:58.487Z,83.18
2018-11-10T01:07:11.107Z,84.01
2018-11-10T01:09:23.327Z,85.06
2018-11-10T01:11:35.553Z,85.19
2018-11-10T01:13:47.775Z,84.67
2018-11-10T01:15:59.949Z,85.07
2018-11-10T01:18:12.158Z,85.31
2018-11-10T01:20:24.399Z,85.61
2018-11-10T01:22:36.882Z,85.63
2018-11-10T01:24:49.072Z,86.13
2018-11-10T01:27:01.271Z,85.40
2018-11-10T01:29:13.529Z,85.79
2018-11-10T01:31:25.741Z,84.66
2018-11-10T01:33:37.901Z,84.39
2018-11-10T01:35:50.084Z,84.52
2018-11-10T01:38:02.270Z,82.94
2018-11-10T01:40:14.811Z,83.62
2018-11-10T01:42:27.109Z,82.44
2018-11-10T01:44:39.395Z,83.64
2018-11-10T01:46:51.694Z,84.48
2018-11-10T01:49:04.197Z,84.43
2018-11-10T01:51:16.450Z,84.11
2018-11-10T01:53:28.663Z,84.62
2018-11-10T01:55:40.867Z,83.63
2018-11-10T01:57:53.108Z,85.33
2018-11-10T02:00:09.019Z,84.91
2018-11-10T02:02:21.253Z,84.75
2018-11-10T02:04:33.444Z,84.83
2018-11-10T02:06:45.796Z,84.84
2018-11-10T02:08:58.008Z,84.21
2018-11-10T02:11:10.240Z,85.10
2018-11-10T02:13:22.431Z,85.64
2018-11-10T02:15:34.623Z,85.03
2018-11-10T02:17:46.822Z,85.53
2018-11-10T02:19:59.111Z,86.24
2018-11-10T02:22:11.383Z,85.58
2018-11-10T02:24:23.608Z,85.68
2018-11-10T02:26:35.859Z,85.55
2018-11-10T02:28:48.130Z,86.01
2018-11-10T02:31:00.325Z,86.57
2018-11-10T02:33:12.518Z,85.68
2018-11-10T02:35:24.700Z,85.65
2018-11-10T02:37:38.634Z,86.31
2018-11-10T02:39:50.819Z,85.64
2018-11-10T02:42:03.032Z,85.56
2018-11-10T02:44:15.236Z,85.37
2018-11-10T02:46:27.450Z,85.62
2018-11-10T02:48:39.663Z,85.72
2018-11-10T02:50:51.879Z,85.77
2018-11-10T02:53:04.076Z,86.52
2018-11-10T02:55:16.318Z,87.10
2018-11-10T02:57:28.491Z,86.06
2018-11-10T02:59:40.711Z,86.21
2018-11-10T03:01:53.173Z,86.35
2018-11-10T03:04:05.847Z,85.34
2018-11-10T03:06:18.079Z,85.39
2018-11-10T03:08:30.262Z,85.50
2018-11-10T03:10:42.537Z,85.69
2018-11-10T03:12:54.671Z,84.74
2018-11-10T03:15:07.532Z,85.25
2018-11-10T03:17:19.711Z,84.94
2018-11-10T03:19:31.916Z,84.42
2018-11-10T03:21:44.143Z,84.21
2018-11-10T03:23:56.351Z,84.10
2018-11-10T03:26:08.537Z,83.42
2018-11-10T03:28:20.759Z,83.76
2018-11-10T03:30:33.159Z,83.43
2018-11-10T03:32:45.443Z,82.70
2018-11-10T03:34:57.643Z,82.11
2018-11-10T03:37:09.847Z,82.89
2018-11-10T03:39:22.032Z,83.42
2018-11-10T03:41:34.230Z,83.63
2018-11-10T03:43:46.435Z,83.61
2018-11-10T03:45:58.597Z,83.60
2018-11-10T03:48:10.814Z,82.80
2018-11-10T03:50:23.010Z,82.57
2018-11-10T03:52:35.446Z,83.18
2018-11-10T03:54:47.716Z,82.89
2018-11-10T03:56:59.909Z,82.91
2018-11-10T03:59:12.096Z,83.73
2018-11-10T04:01:24.397Z,83.82
2018-11-10T04:03:36.626Z,83.34
2018-11-10T04:05:48.834Z,84.11
2018-11-10T04:08:01.033Z,83.88
2018-11-10T04:10:13.929Z,84.10
2018-11-10T04:12:26.149Z,84.37
2018-11-10T04:14:38.330Z,83.95
2018-11-10T04:16:50.525Z,83.65
2018-11-10T04:19:02.727Z,84.09
2018-11-10T04:21:15.105Z,84.73
2018-11-10T04:23:27.287Z,84.06
2018-11-10T04:25:39.456Z,84.25
2018-11-10T04:27:51.666Z,83.09
2018-11-10T04:30:05.438Z,83.66
2018-11-10T04:32:17.687Z,83.91
2018-11-10T04:34:29.864Z,83.69
2018-11-10T04:36:42.054Z,84.75
2018-11-10T04:38:54.289Z,85.22
2018-11-10T04:41:06.818Z,85.94
2018-11-10T04:43:19.024Z,86.10
2018-11-10T04:45:31.239Z,86.06
2018-11-10T04:47:43.687Z,85.51
2018-11-10T04:49:55.933Z,85.41
2018-11-10T04:52:08.621Z,86.09
2018-11-10T04:54:20.818Z,85.56
2018-11-10T04:56:33.017Z,85.50
2018-11-10T04:58:45.215Z,85.25
2018-11-10T05:00:57.441Z,85.38
2018-11-10T05:03:09.637Z,84.76
2018-11-10T05:05:21.857Z,84.91
2018-11-10T05:07:34.060Z,84.88
2018-11-10T05:09:46.256Z,84.77
2018-11-10T05:11:58.430Z,84.64
2018-11-10T05:14:10.638Z,84.82
2018-11-10T05:16:22.818Z,83.92
2018-11-10T05:18:35.058Z,84.02
2018-11-10T05:20:47.258Z,83.62
2018-11-10T05:22:59.485Z,83.62
2018-11-10T05:25:11.693Z,84.52
2018-11-10T05:27:23.887Z,83.58
2018-11-10T05:29:36.053Z,84.02
2018-11-10T05:31:48.267Z,83.74
2018-11-10T05:34:00.462Z,83.46
2018-11-10T05:36:12.688Z,83.98
2018-11-10T05:38:24.887Z,83.25
2018-11-10T05:40:37.071Z,83.86
2018-11-10T05:42:49.294Z,83.64
2018-11-10T05:45:01.527Z,83.83
2018-11-10T05:47:13.719Z,84.44
2018-11-10T05:49:25.898Z,83.08
2018-11-10T05:51:38.113Z,83.87
2018-11-10T05:53:50.308Z,83.84
2018-11-10T05:56:02.499Z,83.35
2018-11-10T05:58:14.751Z,83.89
2018-11-10T06:00:26.942Z,83.58
2018-11-10T06:02:39.161Z,83.48
2018-11-10T06:04:51.360Z,83.62
2018-11-10T06:07:03.560Z,83.91
2018-11-10T06:09:15.867Z,83.95
2018-11-10T06:11:28.042Z,83.21
2018-11-10T06:13:40.222Z,83.24
2018-11-10T06:15:52.486Z,83.14
2018-11-10T06:18:04.758Z,83.79
2018-11-10T06:20:16.929Z,83.06
2018-11-10T06:22:29.207Z,82.76
2018-11-10T06:24:41.403Z,82.71
2018-11-10T06:26:53.620Z,83.54
2018-11-10T06:29:05.954Z,83.23
2018-11-10T06:31:18.147Z,83.77
2018-11-10T06:33:30.342Z,83.49
2018-11-10T06:35:42.611Z,83.05
2018-11-10T06:37:54.838Z,82.96
2018-11-10T06:40:08.684Z,82.34
2018-11-10T06:42:20.873Z,83.19
2018-11-10T06:44:33.199Z,82.09
2018-11-10T06:46:45.397Z,82.95
2018-11-10T06:48:57.612Z,82.35
2018-11-10T06:51:09.859Z,82.23
2018-11-10T06:53:22.066Z,82.36
2018-11-10T06:55:34.255Z,82.08
2018-11-10T06:57:46.481Z,82.18
2018-11-10T06:59:58.678Z,82.04
2018-11-10T07:02:10.888Z,81.45
2018-11-10T07:04:23.118Z,81.31
2018-11-10T07:06:35.338Z,81.37
2018-11-10T07:08:47.643Z,81.01
2018-11-10T07:10:59.869Z,81.21
2018-11-10T07:13:12.050Z,80.98
2018-11-10T07:15:24.254Z,81.59
2018-11-10T07:17:36.636Z,81.83
2018-11-10T07:19:48.763Z,80.75
2018-11-10T07:22:00.958Z,81.47
2018-11-10T07:24:13.182Z,81.50
2018-11-10T07:26:25.390Z,80.73
2018-11-10T07:28:37.602Z,81.18
2018-11-10T07:30:49.839Z,80.50
2018-11-10T07:33:02.112Z,80.58
2018-11-10T07:35:14.335Z,81.07
2018-11-10T07:37:26.582Z,81.34
2018-11-10T07:39:38.829Z,80.87
2018-11-10T07:41:51.100Z,81.30
2018-11-10T07:44:03.375Z,81.23
2018-11-10T07:46:15.610Z,80.42
2018-11-10T07:48:27.839Z,80.07
2018-11-10T07:50:40.056Z,80.70
2018-11-10T07:52:52.380Z,80.67
2018-11-10T07:55:05.392Z,81.30
2018-11-10T07:57:17.616Z,83.44
2018-11-10T07:59:29.890Z,79.47
2018-11-10T08:01:42.130Z,78.00
2018-11-10T08:03:54.330Z,76.51
2018-11-10T08:06:06.615Z,74.75
2018-11-10T08:08:19.003Z,74.60
2018-11-10T08:10:31.260Z,74.75
2018-11-10T08:12:43.519Z,75.37
2018-11-10T08:14:55.736Z,75.17
2018-11-10T08:17:07.988Z,75.52
2018-11-10T08:19:20.250Z,76.66
2018-11-10T08:21:32.511Z,76.55
2018-11-10T08:23:44.747Z,76.36
2018-11-10T08:25:56.941Z,76.24
2018-11-10T08:28:09.164Z,77.36
2018-11-10T08:30:21.465Z,77.13
2018-11-10T08:32:33.702Z,76.16
2018-11-10T08:34:45.965Z,75.53
2018-11-10T08:36:58.275Z,76.36
2018-11-10T08:39:10.898Z,75.95
2018-11-10T08:41:23.070Z,76.13
2018-11-10T08:43:35.278Z,77.04
2018-11-10T08:45:47.822Z,76.49
2018-11-10T08:48:00.065Z,76.93
2018-11-10T08:50:13.446Z,76.82
2018-11-10T08:52:25.751Z,77.49
2018-11-10T08:54:39.863Z,77.07
2018-11-10T08:56:52.242Z,77.96
2018-11-10T08:59:04.587Z,77.93
2018-11-10T09:01:16.826Z,77.42
2018-11-10T09:03:29.084Z,77.34
2018-11-10T09:05:41.390Z,76.91
2018-11-10T09:07:53.612Z,77.71
2018-11-10T09:10:07.581Z,77.93
2018-11-10T09:12:19.801Z,78.13
2018-11-10T09:14:32.051Z,77.82
2018-11-10T09:16:44.306Z,76.52
2018-11-10T09:18:56.531Z,77.04
2018-11-10T09:21:08.854Z,76.15
2018-11-10T09:23:21.086Z,76.59
2018-11-10T09:25:33.371Z,76.48
2018-11-10T09:27:45.657Z,76.55
2018-11-10T09:29:57.899Z,75.66
2018-11-10T09:32:10.145Z,75.00
2018-11-10T09:34:22.387Z,75.29
2018-11-10T09:36:34.621Z,75.06
2018-11-10T09:38:46.810Z,74.65
2018-11-10T09:40:59.050Z,75.32
2018-11-10T09:43:11.332Z,75.44
2018-11-10T09:45:23.588Z,74.57
2018-11-10T09:47:36.059Z,74.05
2018-11-10T09:49:48.320Z,74.17
2018-11-10T09:52:01.447Z,74.37
2018-11-10T09:54:13.671Z,74.07
2018-11-10T09:56:25.895Z,73.72
2018-11-10T09:58:38.179Z,72.85
2018-11-10T10:00:50.460Z,72.06
2018-11-10T10:03:02.720Z,71.11
2018-11-10T10:05:14.958Z,71.72
2018-11-10T10:07:28.215Z,71.13
2018-11-10T10:09:40.467Z,70.62
2018-11-10T10:11:52.709Z,71.88
2018-11-10T10:14:06.118Z,70.14
2018-11-10T10:16:19.684Z,69.44
2018-11-10T10:18:31.693Z,68.40
2018-11-10T10:20:44.001Z,69.76
2018-11-10T10:22:56.275Z,68.07
2018-11-10T10:25:10.120Z,67.93
2018-11-10T10:27:22.378Z,66.58
2018-11-10T10:29:34.630Z,66.75
2018-11-10T10:31:46.854Z,66.62
2018-11-10T10:33:59.158Z,66.09
2018-11-10T10:36:11.354Z,65.16
2018-11-10T10:38:23.635Z,65.12
2018-11-10T10:40:35.897Z,65.20
2018-11-10T10:42:48.386Z,65.20
2018-11-10T10:45:00.552Z,64.40
2018-11-10T10:47:12.813Z,63.45
2018-11-10T10:49:25.127Z,63.96
2018-11-10T10:51:37.411Z,62.45
2018-11-10T10:53:49.706Z,62.66
2018-11-10T10:56:02.057Z,62.77
2018-11-10T10:58:14.199Z,62.39
2018-11-10T11:00:32.063Z,61.98
2018-11-10T11:02:50.079Z,62.01
2018-11-10T11:05:08.720Z,61.91
2018-11-10T11:07:21.418Z,63.69
2018-11-10T11:09:33.682Z,62.77
2018-11-10T11:11:45.988Z,61.74
2018-11-10T11:13:58.240Z,60.64
2018-11-10T11:16:10.573Z,58.82
2018-11-10T11:18:22.779Z,58.96
2018-11-10T11:20:35.006Z,58.88
2018-11-10T11:22:47.337Z,59.50
2018-11-10T11:24:59.619Z,59.43
2018-11-10T11:27:12.222Z,58.90
2018-11-10T11:29:24.544Z,59.16
2018-11-10T11:31:36.737Z,60.16
2018-11-10T11:33:49.082Z,59.09
2018-11-10T11:36:01.215Z,60.55
2018-11-10T11:38:13.530Z,59.54
2018-11-10T11:40:25.832Z,59.92
2018-11-10T11:42:38.192Z,59.06
2018-11-10T11:44:50.406Z,57.65
2018-11-10T11:47:02.658Z,58.19
2018-11-10T11:49:14.886Z,58.56
2018-11-10T11:51:27.137Z,58.50
2018-11-10T11:53:39.367Z,58.88
2018-11-10T11:55:51.586Z,58.63
2018-11-10T11:58:04.044Z,59.10
2018-11-10T12:00:17.004Z,58.35
2018-11-10T12:02:29.266Z,59.12
2018-11-10T12:04:41.625Z,59.00
2018-11-10T12:06:53.812Z,59.62
2018-11-10T12:09:07.835Z,59.03
2018-11-10T12:11:20.035Z,57.26
2018-11-10T12:13:32.289Z,57.79
2018-11-10T12:15:44.515Z,59.05
2018-11-10T12:17:56.758Z,58.69
2018-11-10T12:20:10.667Z,58.16
2018-11-10T12:22:22.874Z,56.99
2018-11-10T12:24:35.224Z,57.14
2018-11-10T12:26:47.459Z,57.56
2018-11-10T12:28:59.774Z,58.35
2018-11-10T12:31:12.017Z,57.38
2018-11-10T12:33:24.335Z,57.37
2018-11-10T12:35:36.573Z,57.73
2018-11-10T12:37:48.846Z,57.90
2018-11-10T12:40:01.130Z,59.18
2018-11-10T12:42:13.392Z,58.16
2018-11-10T12:44:25.654Z,58.54
2018-11-10T12:46:38.307Z,57.83
2018-11-10T12:48:50.557Z,58.29
2018-11-10T12:51:02.876Z,58.85
2018-11-10T12:53:15.135Z,58.43
2018-11-10T12:55:27.358Z,58.20
2018-11-10T12:57:39.865Z,58.90
2018-11-10T12:59:52.061Z,58.27
2018-11-10T13:02:05.446Z,58.71
2018-11-10T13:04:17.707Z,59.10
2018-11-10T13:06:30.035Z,58.82
2018-11-10T13:08:42.309Z,57.97
2018-11-10T13:10:54.643Z,58.80
2018-11-10T13:13:06.777Z,57.71
2018-11-10T13:15:19.025Z,58.22
2018-11-10T13:17:31.409Z,58.79
2018-11-10T13:19:43.623Z,58.12
2018-11-10T13:21:55.839Z,58.13
2018-11-10T13:24:11.817Z,58.12
2018-11-10T13:26:24.054Z,57.97
2018-11-10T13:28:36.264Z,56.96
2018-11-10T13:30:48.579Z,58.30
2018-11-10T13:33:00.774Z,58.01
2018-11-10T13:35:16.523Z,58.31
2018-11-10T13:37:30.430Z,57.90
2018-11-10T13:39:42.663Z,58.75
2018-11-10T13:41:54.933Z,58.15
2018-11-10T13:44:07.273Z,58.13
2018-11-10T13:46:19.492Z,58.81
2018-11-10T13:48:31.739Z,58.65
2018-11-10T13:50:44.054Z,57.88
2018-11-10T13:52:58.758Z,58.25
2018-11-10T13:55:11.283Z,58.75
2018-11-10T13:57:23.519Z,57.89
2018-11-10T13:59:35.802Z,57.91
2018-11-10T14:01:48.026Z,58.66
2018-11-10T14:04:00.276Z,58.54
2018-11-10T14:06:12.565Z,58.12
2018-11-10T14:08:24.794Z,58.83
2018-11-10T14:10:37.093Z,59.33
2018-11-10T14:12:49.424Z,60.89
2018-11-10T14:15:01.661Z,59.30
2018-11-10T14:17:14.082Z,59.17
2018-11-10T14:19:26.302Z,59.39
2018-11-10T14:21:38.535Z,59.59
2018-11-10T14:23:50.820Z,59.63
2018-11-10T14:26:03.087Z,59.77
2018-11-10T14:28:15.339Z,59.74
2018-11-10T14:30:27.582Z,58.74
2018-11-10T14:32:40.537Z,58.80
2018-11-10T14:34:52.825Z,59.20
2018-11-10T14:37:05.168Z,59.94
2018-11-10T14:39:27.256Z,59.20
2018-11-10T14:41:39.534Z,60.20
2018-11-10T14:43:51.856Z,59.71
2018-11-10T14:46:04.168Z,60.07
2018-11-10T14:48:16.416Z,60.43
2018-11-10T14:50:28.683Z,60.96
2018-11-10T14:52:41.353Z,61.16
2018-11-10T14:54:53.470Z,60.60
2018-11-10T14:57:05.767Z,60.86
2018-11-10T14:59:17.980Z,61.49
2018-11-10T15:01:31.618Z,60.92
2018-11-10T15:03:43.884Z,61.12
2018-11-10T15:05:56.083Z,60.65
2018-11-10T15:08:08.340Z,61.62
2018-11-10T15:10:20.589Z,61.11
2018-11-10T15:12:32.836Z,61.24
2018-11-10T15:14:45.098Z,62.21
2018-11-10T15:16:57.397Z,62.31
2018-11-10T15:19:09.678Z,62.56
2018-11-10T15:21:21.899Z,62.92
2018-11-10T15:23:34.150Z,63.73
2018-11-10T15:25:46.434Z,64.37
2018-11-10T15:27:58.704Z,64.29
2018-11-10T15:30:13.144Z,64.89
2018-11-10T15:32:25.378Z,66.12
2018-11-10T15:34:37.762Z,65.96
2018-11-10T15:36:50.120Z,66.90
2018-11-10T15:39:02.735Z,66.88
2018-11-10T15:41:14.947Z,68.27
2018-11-10T15:43:27.233Z,68.33
2018-11-10T15:45:39.721Z,69.48
2018-11-10T15:47:53.046Z,68.85
2018-11-10T15:50:06.430Z,69.67
2018-11-10T15:52:18.700Z,69.91
2018-11-10T15:54:30.937Z,69.25
2018-11-10T15:56:43.199Z,70.19
2018-11-10T15:58:55.444Z,69.98
2018-11-10T16:01:07.678Z,70.51
2018-11-10T16:03:19.904Z,70.22
2018-11-10T16:05:32.174Z,70.80
2018-11-10T16:07:44.423Z,70.96
2018-11-10T16:09:57.128Z,71.10
2018-11-10T16:12:09.327Z,70.35
2018-11-10T16:14:21.551Z,70.86
2018-11-10T16:16:36.817Z,70.22
2018-11-10T16:18:48.993Z,70.77
2018-11-10T16:21:01.336Z,70.48
2018-11-10T16:23:13.515Z,70.41
2018-11-10T16:25:25.751Z,70.63
2018-11-10T16:27:38.044Z,70.73
2018-11-10T16:29:50.303Z,71.35
2018-11-10T16:32:02.595Z,71.20
2018-11-10T16:34:14.906Z,71.21
2018-11-10T16:36:29.946Z,71.50
2018-11-10T16:38:42.194Z,72.12
2018-11-10T16:40:54.454Z,72.06
2018-11-10T16:43:06.711Z,71.45
2018-11-10T16:45:21.627Z,71.45
2018-11-10T16:47:34.043Z,72.30
2018-11-10T16:49:46.322Z,71.94
2018-11-10T16:51:58.683Z,71.91
2018-11-10T16:54:10.948Z,71.97
2018-11-10T16:56:23.183Z,72.55
2018-11-10T16:58:35.476Z,73.03
2018-11-10T17:00:47.732Z,72.88
2018-11-10T17:02:59.965Z,72.29
2018-11-10T17:05:12.302Z,72.83
2018-11-10T17:07:24.622Z,71.97
2018-11-10T17:09:37.014Z,71.91
2018-11-10T17:11:49.419Z,71.60
2018-11-10T17:14:01.655Z,72.40
2018-11-10T17:16:13.879Z,71.81
2018-11-10T17:18:26.154Z,70.71
2018-11-10T17:20:38.427Z,71.36
2018-11-10T17:22:50.861Z,71.17
2018-11-10T17:25:03.146Z,71.10
2018-11-10T17:27:15.395Z,71.13
2018-11-10T17:29:27.651Z,70.70
2018-11-10T17:31:39.904Z,71.33
2018-11-10T17:33:52.180Z,70.51
2018-11-10T17:36:04.762Z,70.44
2018-11-10T17:38:17.054Z,69.87
2018-11-10T17:40:29.359Z,70.36
2018-11-10T17:42:41.706Z,69.59
2018-11-10T17:44:53.958Z,70.77
2018-11-10T17:47:06.250Z,70.62
2018-11-10T17:49:18.579Z,69.92
2018-11-10T17:51:30.854Z,70.86
2018-11-10T17:53:43.130Z,70.08
2018-11-10T17:55:55.366Z,70.04
2018-11-10T17:58:07.660Z,70.17
2018-11-10T18:00:19.923Z,70.35
2018-11-10T18:02:32.180Z,69.70
2018-11-10T18:04:44.470Z,70.16
2018-11-10T18:06:56.746Z,70.13
2018-11-10T18:09:10.209Z,70.22
2018-11-10T18:11:22.449Z,69.61
2018-11-10T18:13:35.691Z,70.28
2018-11-10T18:15:47.934Z,70.24
2018-11-10T18:18:00.246Z,69.06
2018-11-10T18:20:14.823Z,69.44
2018-11-10T18:22:27.069Z,69.04
2018-11-10T18:24:39.322Z,69.02
2018-11-10T18:26:51.565Z,69.18
2018-11-10T18:29:03.839Z,69.64
2018-11-10T18:31:16.107Z,70.20
2018-11-10T18:33:28.336Z,69.67
2018-11-10T18:35:40.663Z,70.03
2018-11-10T18:37:52.917Z,70.77
2018-11-10T18:40:05.528Z,69.98
2018-11-10T18:42:17.704Z,70.46
2018-11-10T18:44:29.971Z,70.68
2018-11-10T18:46:42.279Z,70.67
2018-11-10T18:48:54.522Z,70.79
2018-11-10T18:51:06.868Z,71.07
2018-11-10T18:53:19.092Z,71.18
2018-11-10T18:55:31.396Z,71.39
2018-11-10T18:57:44.276Z,70.89
2018-11-10T18:59:56.354Z,71.44
2018-11-10T19:02:08.647Z,71.11
2018-11-10T19:04:20.923Z,71.53
2018-11-10T19:06:33.195Z,71.25
2018-11-10T19:08:45.415Z,71.77
2018-11-10T19:10:57.750Z,71.03
2018-11-10T19:13:10.076Z,71.63
2018-11-10T19:15:22.300Z,71.92
2018-11-10T19:17:34.604Z,71.89
2018-11-10T19:19:46.852Z,71.91
2018-11-10T19:21:59.107Z,72.01
2018-11-10T19:24:11.339Z,71.97
2018-11-10T19:26:23.580Z,71.45
2018-11-10T19:28:35.838Z,72.07
2018-11-10T19:30:48.061Z,71.97
2018-11-10T19:33:00.319Z,71.98
2018-11-10T19:35:13.108Z,72.20
2018-11-10T19:37:25.416Z,71.44
2018-11-10T19:39:37.611Z,72.16
2018-11-10T19:41:49.851Z,71.76
2018-11-10T19:44:02.069Z,71.43
2018-11-10T19:46:14.343Z,71.34
2018-11-10T19:48:26.620Z,71.80
2018-11-10T19:50:38.881Z,71.70
2018-11-10T19:52:51.127Z,71.59
2018-11-10T19:55:04.054Z,71.79
2018-11-10T19:57:16.810Z,72.53
2018-11-10T19:59:29.040Z,72.09
2018-11-10T20:01:41.323Z,72.43
2018-11-10T20:03:53.649Z,71.48
2018-11-10T20:06:05.936Z,72.30
2018-11-10T20:08:18.239Z,72.11
2018-11-10T20:10:30.524Z,71.84
2018-11-10T20:12:43.043Z,71.94
2018-11-10T20:14:55.304Z,71.62
2018-11-10T20:17:07.580Z,71.49
2018-11-10T20:19:20.210Z,71.32
2018-11-10T20:21:32.442Z,72.10
2018-11-10T20:23:44.707Z,71.79
2018-11-10T20:25:57.029Z,72.09
2018-11-10T20:28:09.374Z,71.51
2018-11-10T20:30:21.654Z,72.30
2018-11-10T20:32:37.963Z,72.02
2018-11-10T20:34:50.160Z,72.11
2018-11-10T20:37:02.471Z,71.29
2018-11-10T20:39:14.738Z,71.29
2018-11-10T20:41:27.085Z,72.22
2018-11-10T20:43:39.410Z,72.22
2018-11-10T20:45:51.641Z,71.50
2018-11-10T20:48:03.880Z,72.14
2018-11-10T20:50:16.656Z,71.55
2018-11-10T20:52:29.199Z,71.63
2018-11-10T20:54:41.391Z,72.12
2018-11-10T20:56:53.678Z,71.48
2018-11-10T20:59:06.011Z,71.56
2018-11-10T21:01:18.249Z,71.11
2018-11-10T21:03:30.675Z,71.26
2018-11-10T21:05:42.990Z,72.29
2018-11-10T21:07:55.227Z,72.04
2018-11-10T21:10:10.077Z,71.25
2018-11-10T21:12:22.416Z,71.09
2018-11-10T21:14:34.645Z,70.84
2018-11-10T21:16:46.901Z,71.78
2018-11-10T21:18:59.143Z,71.16
2018-11-10T21:21:11.455Z,70.92
2018-11-10T21:23:23.763Z,70.96
2018-11-10T21:25:36.068Z,70.79
2018-11-10T21:27:48.364Z,71.75
2018-11-10T21:30:00.764Z,71.57
2018-11-10T21:32:12.900Z,72.00
2018-11-10T21:34:25.177Z,71.77
2018-11-10T21:36:37.403Z,71.92
2018-11-10T21:38:49.684Z,71.38
2018-11-10T21:41:02.014Z,72.08
2018-11-10T21:43:14.325Z,71.35
2018-11-10T21:45:26.565Z,71.17
2018-11-10T21:47:38.793Z,70.70
2018-11-10T21:49:51.050Z,70.90
2018-11-10T21:52:03.385Z,71.08
2018-11-10T21:54:15.693Z,70.42
2018-11-10T21:56:27.886Z,70.47
2018-11-10T21:58:40.168Z,70.62
2018-11-10T22:00:52.434Z,70.34
2018-11-10T22:03:04.764Z,70.35
2018-11-10T22:05:17.406Z,71.41
2018-11-10T22:07:29.655Z,71.25
2018-11-10T22:09:41.903Z,70.14
2018-11-10T22:11:54.139Z,70.30
2018-11-10T22:14:06.594Z,70.53
2018-11-10T22:16:18.943Z,71.18
2018-11-10T22:18:31.206Z,71.00
2018-11-10T22:20:43.443Z,70.14
2018-11-10T22:22:55.662Z,70.43
2018-11-10T22:25:09.052Z,70.30
2018-11-10T22:27:21.260Z,71.28
2018-11-10T22:29:33.570Z,71.41
2018-11-10T22:31:45.800Z,71.24
2018-11-10T22:33:57.983Z,70.94
2018-11-10T22:36:10.214Z,71.59
2018-11-10T22:38:22.473Z,70.92
2018-11-10T22:40:34.737Z,71.65
2018-11-10T22:42:47.133Z,71.67
2018-11-10T22:44:59.349Z,72.68
2018-11-10T22:47:11.625Z,72.10
2018-11-10T22:49:23.918Z,72.38
2018-11-10T22:51:36.218Z,72.86
2018-11-10T22:53:48.599Z,72.87
2018-11-10T22:56:00.808Z,73.07
2018-11-10T22:58:13.031Z,74.19
2018-11-10T23:00:26.359Z,73.50
2018-11-10T23:02:38.583Z,74.40
2018-11-10T23:04:50.839Z,74.10
2018-11-10T23:07:03.143Z,74.19
2018-11-10T23:09:15.404Z,74.36
2018-11-10T23:11:27.651Z,75.11
2018-11-10T23:13:39.918Z,74.20
2018-11-10T23:15:52.171Z,74.35
2018-11-10T23:18:04.402Z,74.38
2018-11-10T23:20:17.635Z,74.47
2018-11-10T23:22:29.866Z,74.45
2018-11-10T23:24:42.079Z,75.13
2018-11-10T23:26:54.298Z,74.49
2018-11-10T23:29:06.378Z,74.32
2018-11-10T23:31:18.660Z,74.54
2018-11-10T23:33:30.903Z,73.87
2018-11-10T23:35:43.114Z,73.70
2018-11-10T23:37:55.359Z,73.73
2018-11-10T23:40:09.525Z,73.87
2018-11-10T23:42:21.774Z,74.32
2018-11-10T23:44:33.997Z,73.58
2018-11-10T23:46:46.207Z,74.05
2018-11-10T23:48:58.455Z,74.79
2018-11-10T23:51:10.663Z,74.44
2018-11-10T23:53:22.881Z,74.44
2018-11-10T23:55:35.090Z,73.72
2018-11-10T23:57:47.275Z,73.82
2018-11-10T23:59:59.503Z,73.66
